sensor_id;sensor_type;location;lat;lon;timestamp;temperature;humidity
21001;DHT22;10658;50.920;12.238;2022-10-16T00:02:38;16.10;99.90
21001;DHT22;10658;50.920;12.238;2022-10-16T00:06:40;16.00;99.90
21001;DHT22;10658;50.920;12.238;2022-10-16T00:10:41;15.90;99.90
21001;DHT22;10658;50.920;12.238;2022-10-16T00:14:43;15.90;99.90
21001;DHT22;10658;50.920;12.238;2022-10-16T00:18:45;15.90;99.90
21001;DHT22;10658;50.920;12.238;2022-10-16T00:22:46;15.90;99.90
21001;DHT22;10658;50.920;12.238;2022-10-16T00:31:11;16.00;99.90
21001;DHT22;10658;50.920;12.238;2022-10-16T00:35:12;16.00;99.90
21001;DHT22;10658;50.920;12.238;2022-10-16T00:39:14;16.10;99.90
21001;DHT22;10658;50.920;12.238;2022-10-16T00:47:45;16.10;99.90
21001;DHT22;10658;50.920;12.238;2022-10-16T00:51:51;16.10;99.90
21001;DHT22;10658;50.920;12.238;2022-10-16T00:55:53;16.00;99.90
21001;DHT22;10658;50.920;12.238;2022-10-16T00:59:55;16.00;99.90
21001;DHT22;10658;50.920;12.238;2022-10-16T01:03:55;16.00;99.90
21001;DHT22;10658;50.920;12.238;2022-10-16T01:08:13;15.90;99.90
21001;DHT22;10658;50.920;12.238;2022-10-16T01:12:38;15.90;99.90
21001;DHT22;10658;50.920;12.238;2022-10-16T01:16:48;15.80;99.90
21001;DHT22;10658;50.920;12.238;2022-10-16T01:21:02;15.80;99.90
21001;DHT22;10658;50.920;12.238;2022-10-16T01:25:09;15.80;99.90
21001;DHT22;10658;50.920;12.238;2022-10-16T01:29:20;15.70;99.90
21001;DHT22;10658;50.920;12.238;2022-10-16T01:33:35;15.70;99.90
21001;DHT22;10658;50.920;12.238;2022-10-16T01:37:39;15.60;99.90
21001;DHT22;10658;50.920;12.238;2022-10-16T01:41:46;15.50;99.90
21001;DHT22;10658;50.920;12.238;2022-10-16T01:45:50;15.50;99.90
21001;DHT22;10658;50.920;12.238;2022-10-16T01:49:53;15.40;99.90
21001;DHT22;10658;50.920;12.238;2022-10-16T01:53:58;15.50;99.90
21001;DHT22;10658;50.920;12.238;2022-10-16T01:58:02;15.50;99.90
21001;DHT22;10658;50.920;12.238;2022-10-16T02:02:08;15.50;99.90
21001;DHT22;10658;50.920;12.238;2022-10-16T02:06:10;15.50;99.90
21001;DHT22;10658;50.920;12.238;2022-10-16T02:10:13;15.50;99.90
21001;DHT22;10658;50.920;12.238;2022-10-16T02:14:14;15.40;99.90
21001;DHT22;10658;50.920;12.238;2022-10-16T02:18:15;15.50;99.90
21001;DHT22;10658;50.920;12.238;2022-10-16T02:22:46;15.50;99.90
21001;DHT22;10658;50.920;12.238;2022-10-16T02:27:12;15.50;99.90
21001;DHT22;10658;50.920;12.238;2022-10-16T02:31:21;15.50;99.90
21001;DHT22;10658;50.920;12.238;2022-10-16T02:35:25;15.40;99.90
21001;DHT22;10658;50.920;12.238;2022-10-16T02:39:29;15.40;99.90
21001;DHT22;10658;50.920;12.238;2022-10-16T02:43:31;15.30;99.90
21001;DHT22;10658;50.920;12.238;2022-10-16T02:47:32;15.20;99.90
21001;DHT22;10658;50.920;12.238;2022-10-16T02:51:34;15.20;99.90
21001;DHT22;10658;50.920;12.238;2022-10-16T02:55:35;15.20;99.90
21001;DHT22;10658;50.920;12.238;2022-10-16T02:59:37;15.20;99.90
21001;DHT22;10658;50.920;12.238;2022-10-16T03:03:39;15.20;99.90
21001;DHT22;10658;50.920;12.238;2022-10-16T03:07:40;15.20;99.90
21001;DHT22;10658;50.920;12.238;2022-10-16T03:11:42;15.10;99.90
21001;DHT22;10658;50.920;12.238;2022-10-16T03:15:43;15.20;99.90
21001;DHT22;10658;50.920;12.238;2022-10-16T03:19:45;15.20;99.90
21001;DHT22;10658;50.920;12.238;2022-10-16T03:23:45;15.20;99.90
21001;DHT22;10658;50.920;12.238;2022-10-16T03:27:47;15.20;99.90
21001;DHT22;10658;50.920;12.238;2022-10-16T03:31:47;15.20;99.90
21001;DHT22;10658;50.920;12.238;2022-10-16T03:35:54;15.20;99.90
21001;DHT22;10658;50.920;12.238;2022-10-16T03:39:55;15.20;99.90
21001;DHT22;10658;50.920;12.238;2022-10-16T03:43:56;15.20;99.90
21001;DHT22;10658;50.920;12.238;2022-10-16T03:47:58;15.10;99.90
21001;DHT22;10658;50.920;12.238;2022-10-16T03:51:59;15.20;99.90
21001;DHT22;10658;50.920;12.238;2022-10-16T03:56:01;15.20;99.90
21001;DHT22;10658;50.920;12.238;2022-10-16T04:00:02;15.00;99.90
21001;DHT22;10658;50.920;12.238;2022-10-16T04:04:12;15.00;99.90
21001;DHT22;10658;50.920;12.238;2022-10-16T04:08:14;15.10;99.90
21001;DHT22;10658;50.920;12.238;2022-10-16T04:12:15;15.10;99.90
21001;DHT22;10658;50.920;12.238;2022-10-16T04:16:16;15.10;99.90
21001;DHT22;10658;50.920;12.238;2022-10-16T04:20:17;15.00;99.90
21001;DHT22;10658;50.920;12.238;2022-10-16T04:24:19;15.00;99.90
21001;DHT22;10658;50.920;12.238;2022-10-16T04:28:20;14.90;99.90
21001;DHT22;10658;50.920;12.238;2022-10-16T04:32:21;14.90;99.90
21001;DHT22;10658;50.920;12.238;2022-10-16T04:36:22;14.80;99.90
21001;DHT22;10658;50.920;12.238;2022-10-16T04:40:23;14.70;99.90
21001;DHT22;10658;50.920;12.238;2022-10-16T04:44:24;14.60;99.90
21001;DHT22;10658;50.920;12.238;2022-10-16T04:48:26;14.60;99.90
21001;DHT22;10658;50.920;12.238;2022-10-16T04:52:27;14.60;99.90
21001;DHT22;10658;50.920;12.238;2022-10-16T04:56:29;14.60;99.90
21001;DHT22;10658;50.920;12.238;2022-10-16T05:00:30;14.50;99.90
21001;DHT22;10658;50.920;12.238;2022-10-16T05:04:32;14.50;99.90
21001;DHT22;10658;50.920;12.238;2022-10-16T05:08:33;14.60;99.90
21001;DHT22;10658;50.920;12.238;2022-10-16T05:12:34;14.70;99.90
21001;DHT22;10658;50.920;12.238;2022-10-16T05:16:35;14.80;99.90
21001;DHT22;10658;50.920;12.238;2022-10-16T05:20:36;14.80;99.90
21001;DHT22;10658;50.920;12.238;2022-10-16T05:24:38;14.90;99.90
21001;DHT22;10658;50.920;12.238;2022-10-16T05:28:39;14.90;99.90
21001;DHT22;10658;50.920;12.238;2022-10-16T05:32:41;15.10;99.90
21001;DHT22;10658;50.920;12.238;2022-10-16T05:36:42;15.20;99.90
21001;DHT22;10658;50.920;12.238;2022-10-16T05:40:51;15.30;99.90
21001;DHT22;10658;50.920;12.238;2022-10-16T05:49:17;15.20;99.90
21001;DHT22;10658;50.920;12.238;2022-10-16T05:53:18;15.30;99.90
21001;DHT22;10658;50.920;12.238;2022-10-16T05:57:26;15.20;99.90
21001;DHT22;10658;50.920;12.238;2022-10-16T06:01:27;15.30;99.90
21001;DHT22;10658;50.920;12.238;2022-10-16T06:05:28;15.20;99.90
21001;DHT22;10658;50.920;12.238;2022-10-16T06:09:29;15.20;99.90
21001;DHT22;10658;50.920;12.238;2022-10-16T06:13:30;15.20;99.90
21001;DHT22;10658;50.920;12.238;2022-10-16T06:17:31;15.20;99.90
21001;DHT22;10658;50.920;12.238;2022-10-16T06:21:33;15.30;99.90
21001;DHT22;10658;50.920;12.238;2022-10-16T06:25:33;15.30;99.90
21001;DHT22;10658;50.920;12.238;2022-10-16T06:29:34;15.40;99.90
21001;DHT22;10658;50.920;12.238;2022-10-16T06:33:36;15.50;99.90
21001;DHT22;10658;50.920;12.238;2022-10-16T06:37:38;15.50;99.90
21001;DHT22;10658;50.920;12.238;2022-10-16T06:41:39;15.70;99.90
21001;DHT22;10658;50.920;12.238;2022-10-16T06:45:56;15.70;99.90
21001;DHT22;10658;50.920;12.238;2022-10-16T06:49:57;15.80;99.90
21001;DHT22;10658;50.920;12.238;2022-10-16T06:53:59;15.80;99.90
21001;DHT22;10658;50.920;12.238;2022-10-16T06:58:01;15.80;99.90
21001;DHT22;10658;50.920;12.238;2022-10-16T07:02:02;15.80;99.90
21001;DHT22;10658;50.920;12.238;2022-10-16T07:06:05;15.90;99.90
21001;DHT22;10658;50.920;12.238;2022-10-16T07:10:08;15.90;99.90
21001;DHT22;10658;50.920;12.238;2022-10-16T07:14:16;15.90;99.90
21001;DHT22;10658;50.920;12.238;2022-10-16T07:18:18;15.90;99.90
21001;DHT22;10658;50.920;12.238;2022-10-16T07:22:20;16.00;99.90
21001;DHT22;10658;50.920;12.238;2022-10-16T07:26:23;16.10;99.90
21001;DHT22;10658;50.920;12.238;2022-10-16T07:30:25;16.20;99.90
21001;DHT22;10658;50.920;12.238;2022-10-16T07:34:26;16.40;99.90
21001;DHT22;10658;50.920;12.238;2022-10-16T07:38:27;16.50;99.90
21001;DHT22;10658;50.920;12.238;2022-10-16T07:42:29;16.60;99.90
21001;DHT22;10658;50.920;12.238;2022-10-16T07:46:30;16.60;99.90
21001;DHT22;10658;50.920;12.238;2022-10-16T07:50:32;16.60;99.90
21001;DHT22;10658;50.920;12.238;2022-10-16T07:54:33;16.60;99.90
21001;DHT22;10658;50.920;12.238;2022-10-16T07:58:35;16.70;99.90
21001;DHT22;10658;50.920;12.238;2022-10-16T08:02:40;16.80;99.90
21001;DHT22;10658;50.920;12.238;2022-10-16T08:06:41;17.10;99.90
21001;DHT22;10658;50.920;12.238;2022-10-16T08:10:43;17.20;99.90
21001;DHT22;10658;50.920;12.238;2022-10-16T08:14:44;17.30;99.90
21001;DHT22;10658;50.920;12.238;2022-10-16T08:18:46;17.40;99.90
21001;DHT22;10658;50.920;12.238;2022-10-16T08:22:46;17.50;99.90
21001;DHT22;10658;50.920;12.238;2022-10-16T08:26:47;17.50;99.90
21001;DHT22;10658;50.920;12.238;2022-10-16T08:30:49;17.40;99.90
21001;DHT22;10658;50.920;12.238;2022-10-16T08:34:49;17.30;99.90
21001;DHT22;10658;50.920;12.238;2022-10-16T08:38:51;17.40;99.90
21001;DHT22;10658;50.920;12.238;2022-10-16T08:43:18;17.40;99.90
21001;DHT22;10658;50.920;12.238;2022-10-16T08:51:55;17.70;99.90
21001;DHT22;10658;50.920;12.238;2022-10-16T08:55:58;17.90;99.90
21001;DHT22;10658;50.920;12.238;2022-10-16T09:00:12;18.00;99.90
21001;DHT22;10658;50.920;12.238;2022-10-16T09:04:54;18.00;99.90
21001;DHT22;10658;50.920;12.238;2022-10-16T09:09:53;18.10;99.90
21001;DHT22;10658;50.920;12.238;2022-10-16T09:18:05;18.30;99.90
21001;DHT22;10658;50.920;12.238;2022-10-16T09:22:14;18.40;99.90
21001;DHT22;10658;50.920;12.238;2022-10-16T09:26:16;18.50;99.90
21001;DHT22;10658;50.920;12.238;2022-10-16T09:30:20;18.50;99.90
21001;DHT22;10658;50.920;12.238;2022-10-16T09:38:32;18.60;99.90
21001;DHT22;10658;50.920;12.238;2022-10-16T09:42:36;18.60;99.90
21001;DHT22;10658;50.920;12.238;2022-10-16T09:46:37;18.60;99.90
21001;DHT22;10658;50.920;12.238;2022-10-16T09:50:41;18.50;99.90
21001;DHT22;10658;50.920;12.238;2022-10-16T09:54:53;18.60;99.90
21001;DHT22;10658;50.920;12.238;2022-10-16T09:59:08;18.80;99.90
21001;DHT22;10658;50.920;12.238;2022-10-16T10:03:10;19.00;99.90
21001;DHT22;10658;50.920;12.238;2022-10-16T10:07:24;19.20;99.90
21001;DHT22;10658;50.920;12.238;2022-10-16T10:11:41;19.30;99.90
21001;DHT22;10658;50.920;12.238;2022-10-16T10:15:43;19.20;99.90
21001;DHT22;10658;50.920;12.238;2022-10-16T10:23:55;19.40;99.90
21001;DHT22;10658;50.920;12.238;2022-10-16T10:32:19;19.50;99.90
21001;DHT22;10658;50.920;12.238;2022-10-16T10:36:35;19.60;99.90
21001;DHT22;10658;50.920;12.238;2022-10-16T10:49:35;19.60;99.90
21001;DHT22;10658;50.920;12.238;2022-10-16T11:03:00;19.80;99.90
21001;DHT22;10658;50.920;12.238;2022-10-16T11:07:09;20.20;99.90
21001;DHT22;10658;50.920;12.238;2022-10-16T11:11:43;20.30;99.90
21001;DHT22;10658;50.920;12.238;2022-10-16T11:15:47;20.30;99.90
21001;DHT22;10658;50.920;12.238;2022-10-16T11:19:54;20.40;99.90
21001;DHT22;10658;50.920;12.238;2022-10-16T11:28:17;20.50;99.90
21001;DHT22;10658;50.920;12.238;2022-10-16T11:32:33;20.30;99.90
21001;DHT22;10658;50.920;12.238;2022-10-16T11:36:56;20.40;99.90
21001;DHT22;10658;50.920;12.238;2022-10-16T11:41:09;20.60;99.90
21001;DHT22;10658;50.920;12.238;2022-10-16T11:45:39;20.70;99.90
21001;DHT22;10658;50.920;12.238;2022-10-16T11:49:43;20.60;99.90
21001;DHT22;10658;50.920;12.238;2022-10-16T11:54:20;20.60;99.90
21001;DHT22;10658;50.920;12.238;2022-10-16T12:03:14;20.70;99.90
21001;DHT22;10658;50.920;12.238;2022-10-16T12:07:23;20.70;99.90
21001;DHT22;10658;50.920;12.238;2022-10-16T12:15:32;20.70;99.90
21001;DHT22;10658;50.920;12.238;2022-10-16T12:19:33;20.70;99.90
21001;DHT22;10658;50.920;12.238;2022-10-16T12:23:46;20.70;99.90
21001;DHT22;10658;50.920;12.238;2022-10-16T12:28:07;20.60;99.90
21001;DHT22;10658;50.920;12.238;2022-10-16T12:32:28;20.60;99.90
21001;DHT22;10658;50.920;12.238;2022-10-16T12:36:33;20.50;99.90
21001;DHT22;10658;50.920;12.238;2022-10-16T12:40:36;20.40;99.90
21001;DHT22;10658;50.920;12.238;2022-10-16T12:44:38;20.40;99.90
21001;DHT22;10658;50.920;12.238;2022-10-16T12:48:42;20.60;99.90
21001;DHT22;10658;50.920;12.238;2022-10-16T12:52:45;20.50;99.90
21001;DHT22;10658;50.920;12.238;2022-10-16T13:01:19;20.40;99.90
21001;DHT22;10658;50.920;12.238;2022-10-16T13:18:51;20.80;99.90
21001;DHT22;10658;50.920;12.238;2022-10-16T13:23:17;20.90;99.90
21001;DHT22;10658;50.920;12.238;2022-10-16T13:28:01;20.70;99.90
21001;DHT22;10658;50.920;12.238;2022-10-16T13:32:08;20.70;99.90
21001;DHT22;10658;50.920;12.238;2022-10-16T13:36:21;20.60;99.90
21001;DHT22;10658;50.920;12.238;2022-10-16T13:40:24;20.50;99.90
21001;DHT22;10658;50.920;12.238;2022-10-16T13:44:26;20.50;99.90
21001;DHT22;10658;50.920;12.238;2022-10-16T13:48:29;20.50;99.90
21001;DHT22;10658;50.920;12.238;2022-10-16T13:52:31;20.50;99.90
21001;DHT22;10658;50.920;12.238;2022-10-16T13:56:33;20.60;99.90
21001;DHT22;10658;50.920;12.238;2022-10-16T14:00:34;20.60;99.90
21001;DHT22;10658;50.920;12.238;2022-10-16T14:04:38;20.60;99.90
21001;DHT22;10658;50.920;12.238;2022-10-16T14:08:43;20.60;99.90
21001;DHT22;10658;50.920;12.238;2022-10-16T14:12:45;20.50;99.90
21001;DHT22;10658;50.920;12.238;2022-10-16T14:16:47;20.50;99.90
21001;DHT22;10658;50.920;12.238;2022-10-16T14:20:48;20.50;99.90
21001;DHT22;10658;50.920;12.238;2022-10-16T14:24:50;20.50;99.90
21001;DHT22;10658;50.920;12.238;2022-10-16T14:29:12;20.40;99.90
21001;DHT22;10658;50.920;12.238;2022-10-16T14:33:31;20.30;99.90
21001;DHT22;10658;50.920;12.238;2022-10-16T14:37:34;20.20;99.90
21001;DHT22;10658;50.920;12.238;2022-10-16T14:41:43;20.20;99.90
21001;DHT22;10658;50.920;12.238;2022-10-16T14:45:51;20.20;99.90
21001;DHT22;10658;50.920;12.238;2022-10-16T14:49:54;20.20;99.90
21001;DHT22;10658;50.920;12.238;2022-10-16T14:53:57;20.20;99.90
21001;DHT22;10658;50.920;12.238;2022-10-16T14:57:58;20.10;99.90
21001;DHT22;10658;50.920;12.238;2022-10-16T15:01:59;20.20;99.90
21001;DHT22;10658;50.920;12.238;2022-10-16T15:06:00;20.20;99.90
21001;DHT22;10658;50.920;12.238;2022-10-16T15:10:01;20.00;99.90
21001;DHT22;10658;50.920;12.238;2022-10-16T15:14:02;20.00;99.90
21001;DHT22;10658;50.920;12.238;2022-10-16T15:18:04;19.90;99.90
21001;DHT22;10658;50.920;12.238;2022-10-16T15:22:05;19.80;99.90
21001;DHT22;10658;50.920;12.238;2022-10-16T15:26:07;19.60;99.90
21001;DHT22;10658;50.920;12.238;2022-10-16T15:30:09;19.50;99.90
21001;DHT22;10658;50.920;12.238;2022-10-16T15:34:11;19.40;99.90
21001;DHT22;10658;50.920;12.238;2022-10-16T15:38:13;19.20;99.90
21001;DHT22;10658;50.920;12.238;2022-10-16T15:42:14;19.10;99.90
21001;DHT22;10658;50.920;12.238;2022-10-16T15:46:19;19.00;99.90
21001;DHT22;10658;50.920;12.238;2022-10-16T15:50:20;18.90;99.90
21001;DHT22;10658;50.920;12.238;2022-10-16T15:54:21;18.80;99.90
21001;DHT22;10658;50.920;12.238;2022-10-16T15:58:23;18.70;99.90
21001;DHT22;10658;50.920;12.238;2022-10-16T16:02:25;18.50;99.90
21001;DHT22;10658;50.920;12.238;2022-10-16T16:06:26;18.30;99.90
21001;DHT22;10658;50.920;12.238;2022-10-16T16:10:28;18.20;99.90
21001;DHT22;10658;50.920;12.238;2022-10-16T16:14:29;18.10;99.90
21001;DHT22;10658;50.920;12.238;2022-10-16T16:18:30;17.90;99.90
21001;DHT22;10658;50.920;12.238;2022-10-16T16:22:31;17.80;99.90
21001;DHT22;10658;50.920;12.238;2022-10-16T16:26:34;17.70;99.90
21001;DHT22;10658;50.920;12.238;2022-10-16T16:30:37;17.60;99.90
21001;DHT22;10658;50.920;12.238;2022-10-16T16:34:38;17.70;99.90
21001;DHT22;10658;50.920;12.238;2022-10-16T16:38:40;17.60;99.90
21001;DHT22;10658;50.920;12.238;2022-10-16T16:42:41;17.60;99.90
21001;DHT22;10658;50.920;12.238;2022-10-16T16:46:44;17.60;99.90
21001;DHT22;10658;50.920;12.238;2022-10-16T16:50:45;17.50;99.90
21001;DHT22;10658;50.920;12.238;2022-10-16T16:54:47;17.50;99.90
21001;DHT22;10658;50.920;12.238;2022-10-16T16:58:54;17.40;99.90
21001;DHT22;10658;50.920;12.238;2022-10-16T17:03:17;17.30;99.90
21001;DHT22;10658;50.920;12.238;2022-10-16T17:07:19;17.30;99.90
21001;DHT22;10658;50.920;12.238;2022-10-16T17:11:23;17.20;99.90
21001;DHT22;10658;50.920;12.238;2022-10-16T17:15:25;17.10;99.90
21001;DHT22;10658;50.920;12.238;2022-10-16T17:19:26;17.10;99.90
21001;DHT22;10658;50.920;12.238;2022-10-16T17:23:28;17.00;99.90
21001;DHT22;10658;50.920;12.238;2022-10-16T17:27:29;16.90;99.90
21001;DHT22;10658;50.920;12.238;2022-10-16T17:31:35;16.80;99.90
21001;DHT22;10658;50.920;12.238;2022-10-16T17:35:41;16.80;99.90
21001;DHT22;10658;50.920;12.238;2022-10-16T17:39:42;16.70;99.90
21001;DHT22;10658;50.920;12.238;2022-10-16T17:43:43;16.70;99.90
21001;DHT22;10658;50.920;12.238;2022-10-16T17:47:45;16.70;99.90
21001;DHT22;10658;50.920;12.238;2022-10-16T17:51:52;16.70;99.90
21001;DHT22;10658;50.920;12.238;2022-10-16T17:55:53;16.80;99.90
21001;DHT22;10658;50.920;12.238;2022-10-16T18:04:16;16.90;99.90
21001;DHT22;10658;50.920;12.238;2022-10-16T18:08:18;16.90;99.90
21001;DHT22;10658;50.920;12.238;2022-10-16T18:12:22;16.90;99.90
21001;DHT22;10658;50.920;12.238;2022-10-16T18:16:25;16.90;99.90
21001;DHT22;10658;50.920;12.238;2022-10-16T18:20:27;17.00;99.90
21001;DHT22;10658;50.920;12.238;2022-10-16T18:24:28;17.00;99.90
21001;DHT22;10658;50.920;12.238;2022-10-16T18:28:29;17.00;99.90
21001;DHT22;10658;50.920;12.238;2022-10-16T18:32:30;17.00;99.90
21001;DHT22;10658;50.920;12.238;2022-10-16T18:36:33;17.10;99.90
21001;DHT22;10658;50.920;12.238;2022-10-16T18:40:35;17.00;99.90
21001;DHT22;10658;50.920;12.238;2022-10-16T18:44:36;17.00;99.90
21001;DHT22;10658;50.920;12.238;2022-10-16T18:48:38;17.00;99.90
21001;DHT22;10658;50.920;12.238;2022-10-16T18:52:46;17.00;99.90
21001;DHT22;10658;50.920;12.238;2022-10-16T18:56:50;16.90;99.90
21001;DHT22;10658;50.920;12.238;2022-10-16T19:00:51;16.90;99.90
21001;DHT22;10658;50.920;12.238;2022-10-16T19:04:53;16.80;99.90
21001;DHT22;10658;50.920;12.238;2022-10-16T19:08:55;16.80;99.90
21001;DHT22;10658;50.920;12.238;2022-10-16T19:12:56;16.80;99.90
21001;DHT22;10658;50.920;12.238;2022-10-16T19:16:57;16.80;99.90
21001;DHT22;10658;50.920;12.238;2022-10-16T19:21:03;16.80;99.90
21001;DHT22;10658;50.920;12.238;2022-10-16T19:25:05;16.70;99.90
21001;DHT22;10658;50.920;12.238;2022-10-16T19:29:06;16.70;99.90
21001;DHT22;10658;50.920;12.238;2022-10-16T19:33:09;16.60;99.90
21001;DHT22;10658;50.920;12.238;2022-10-16T19:37:10;16.60;99.90
21001;DHT22;10658;50.920;12.238;2022-10-16T19:41:13;16.60;99.90
21001;DHT22;10658;50.920;12.238;2022-10-16T19:45:14;16.50;99.90
21001;DHT22;10658;50.920;12.238;2022-10-16T19:49:17;16.40;99.90
21001;DHT22;10658;50.920;12.238;2022-10-16T19:53:20;16.40;99.90
21001;DHT22;10658;50.920;12.238;2022-10-16T19:57:22;16.20;99.90
21001;DHT22;10658;50.920;12.238;2022-10-16T20:01:26;16.20;99.90
21001;DHT22;10658;50.920;12.238;2022-10-16T20:05:27;16.20;99.90
21001;DHT22;10658;50.920;12.238;2022-10-16T20:09:28;16.10;99.90
21001;DHT22;10658;50.920;12.238;2022-10-16T20:13:30;16.10;99.90
21001;DHT22;10658;50.920;12.238;2022-10-16T20:17:32;16.10;99.90
21001;DHT22;10658;50.920;12.238;2022-10-16T20:21:34;16.10;99.90
21001;DHT22;10658;50.920;12.238;2022-10-16T20:25:40;16.00;99.90
21001;DHT22;10658;50.920;12.238;2022-10-16T20:29:41;16.10;99.90
21001;DHT22;10658;50.920;12.238;2022-10-16T20:33:42;16.00;99.90
21001;DHT22;10658;50.920;12.238;2022-10-16T20:37:43;15.90;99.90
21001;DHT22;10658;50.920;12.238;2022-10-16T20:41:48;15.90;99.90
21001;DHT22;10658;50.920;12.238;2022-10-16T20:46:01;15.80;99.90
21001;DHT22;10658;50.920;12.238;2022-10-16T20:50:03;15.80;99.90
21001;DHT22;10658;50.920;12.238;2022-10-16T20:54:05;15.60;99.90
21001;DHT22;10658;50.920;12.238;2022-10-16T20:58:06;15.60;99.90
21001;DHT22;10658;50.920;12.238;2022-10-16T21:06:21;15.40;99.90
21001;DHT22;10658;50.920;12.238;2022-10-16T21:10:22;15.40;99.90
21001;DHT22;10658;50.920;12.238;2022-10-16T21:14:23;15.40;99.90
21001;DHT22;10658;50.920;12.238;2022-10-16T21:18:24;15.30;99.90
21001;DHT22;10658;50.920;12.238;2022-10-16T21:22:28;15.20;99.90
21001;DHT22;10658;50.920;12.238;2022-10-16T21:26:30;15.30;99.90
21001;DHT22;10658;50.920;12.238;2022-10-16T21:30:32;15.30;99.90
21001;DHT22;10658;50.920;12.238;2022-10-16T21:34:34;15.30;99.90
21001;DHT22;10658;50.920;12.238;2022-10-16T21:38:34;15.20;99.90
21001;DHT22;10658;50.920;12.238;2022-10-16T21:42:35;15.10;99.90
21001;DHT22;10658;50.920;12.238;2022-10-16T21:46:38;15.00;99.90
21001;DHT22;10658;50.920;12.238;2022-10-16T21:50:46;14.90;99.90
21001;DHT22;10658;50.920;12.238;2022-10-16T21:54:47;14.80;99.90
21001;DHT22;10658;50.920;12.238;2022-10-16T21:58:49;14.70;99.90
21001;DHT22;10658;50.920;12.238;2022-10-16T22:02:50;14.70;99.90
21001;DHT22;10658;50.920;12.238;2022-10-16T22:06:51;14.50;99.90
21001;DHT22;10658;50.920;12.238;2022-10-16T22:10:52;14.40;99.90
21001;DHT22;10658;50.920;12.238;2022-10-16T22:14:53;14.40;99.90
21001;DHT22;10658;50.920;12.238;2022-10-16T22:18:55;14.40;99.90
21001;DHT22;10658;50.920;12.238;2022-10-16T22:22:56;14.40;99.90
21001;DHT22;10658;50.920;12.238;2022-10-16T22:26:57;14.50;99.90
21001;DHT22;10658;50.920;12.238;2022-10-16T22:31:07;14.40;99.90
21001;DHT22;10658;50.920;12.238;2022-10-16T22:35:09;14.30;99.90
21001;DHT22;10658;50.920;12.238;2022-10-16T22:39:11;14.40;99.90
21001;DHT22;10658;50.920;12.238;2022-10-16T22:43:12;14.30;99.90
21001;DHT22;10658;50.920;12.238;2022-10-16T22:47:13;14.30;99.90
21001;DHT22;10658;50.920;12.238;2022-10-16T22:51:15;14.30;99.90
21001;DHT22;10658;50.920;12.238;2022-10-16T22:55:16;14.20;99.90
21001;DHT22;10658;50.920;12.238;2022-10-16T22:59:17;14.00;99.90
21001;DHT22;10658;50.920;12.238;2022-10-16T23:03:18;14.00;99.90
21001;DHT22;10658;50.920;12.238;2022-10-16T23:07:19;14.00;99.90
21001;DHT22;10658;50.920;12.238;2022-10-16T23:11:20;14.00;99.90
21001;DHT22;10658;50.920;12.238;2022-10-16T23:15:22;13.90;99.90
21001;DHT22;10658;50.920;12.238;2022-10-16T23:19:23;13.80;99.90
21001;DHT22;10658;50.920;12.238;2022-10-16T23:23:23;13.80;99.90
21001;DHT22;10658;50.920;12.238;2022-10-16T23:27:24;13.70;99.90
21001;DHT22;10658;50.920;12.238;2022-10-16T23:31:26;13.60;99.90
21001;DHT22;10658;50.920;12.238;2022-10-16T23:35:27;13.40;99.90
21001;DHT22;10658;50.920;12.238;2022-10-16T23:39:28;13.30;99.90
21001;DHT22;10658;50.920;12.238;2022-10-16T23:43:29;13.20;99.90
21001;DHT22;10658;50.920;12.238;2022-10-16T23:47:30;13.20;99.90
21001;DHT22;10658;50.920;12.238;2022-10-16T23:51:31;13.20;99.90
21001;DHT22;10658;50.920;12.238;2022-10-16T23:55:32;13.20;99.90
21001;DHT22;10658;50.920;12.238;2022-10-16T23:59:33;13.20;99.90
